sensor_id;sensor_type;location;lat;lon;timestamp;pressure;altitude;pressure_sealevel;temperature;humidity
6132;BME280;3097;42.692;23.278;2023-05-29T00:01:50;94790.72;;;14.00;100.00
6132;BME280;3097;42.692;23.278;2023-05-29T00:04:16;94797.22;;;13.98;100.00
6132;BME280;3097;42.692;23.278;2023-05-29T00:06:42;94779.44;;;13.84;100.00
6132;BME280;3097;42.692;23.278;2023-05-29T00:09:07;94795.25;;;13.83;100.00
6132;BME280;3097;42.692;23.278;2023-05-29T00:11:33;94795.75;;;13.85;100.00
6132;BME280;3097;42.692;23.278;2023-05-29T00:13:58;94786.84;;;13.76;100.00
6132;BME280;3097;42.692;23.278;2023-05-29T00:16:24;94774.50;;;13.61;100.00
6132;BME280;3097;42.692;23.278;2023-05-29T00:18:49;94801.38;;;13.77;100.00
6132;BME280;3097;42.692;23.278;2023-05-29T00:21:17;94808.34;;;13.76;100.00
6132;BME280;3097;42.692;23.278;2023-05-29T00:23:43;94801.63;;;13.75;100.00
6132;BME280;3097;42.692;23.278;2023-05-29T00:26:08;94796.19;;;13.77;100.00
6132;BME280;3097;42.692;23.278;2023-05-29T00:28:35;94799.47;;;13.67;100.00
6132;BME280;3097;42.692;23.278;2023-05-29T00:31:01;94806.44;;;13.67;100.00
6132;BME280;3097;42.692;23.278;2023-05-29T00:33:27;94803.06;;;13.66;100.00
6132;BME280;3097;42.692;23.278;2023-05-29T00:35:53;94802.84;;;13.68;100.00
6132;BME280;3097;42.692;23.278;2023-05-29T00:38:18;94799.19;;;13.69;100.00
6132;BME280;3097;42.692;23.278;2023-05-29T00:40:43;94799.69;;;13.66;100.00
6132;BME280;3097;42.692;23.278;2023-05-29T00:43:09;94795.50;;;13.60;100.00
6132;BME280;3097;42.692;23.278;2023-05-29T00:45:34;94796.75;;;13.57;100.00
6132;BME280;3097;42.692;23.278;2023-05-29T00:48:02;94803.50;;;13.58;100.00
6132;BME280;3097;42.692;23.278;2023-05-29T00:50:28;94801.13;;;13.56;100.00
6132;BME280;3097;42.692;23.278;2023-05-29T00:52:54;94796.75;;;13.57;100.00
6132;BME280;3097;42.692;23.278;2023-05-29T00:55:20;94795.41;;;13.54;100.00
6132;BME280;3097;42.692;23.278;2023-05-29T00:57:45;94792.31;;;13.52;100.00
6132;BME280;3097;42.692;23.278;2023-05-29T01:00:12;94786.06;;;13.53;100.00
6132;BME280;3097;42.692;23.278;2023-05-29T01:02:43;94799.03;;;13.53;100.00
6132;BME280;3097;42.692;23.278;2023-05-29T01:05:12;94791.25;;;13.53;100.00
6132;BME280;3097;42.692;23.278;2023-05-29T01:07:38;94781.09;;;13.47;100.00
6132;BME280;3097;42.692;23.278;2023-05-29T01:10:05;94753.94;;;13.28;100.00
6132;BME280;3097;42.692;23.278;2023-05-29T01:12:54;94785.56;;;13.51;100.00
6132;BME280;3097;42.692;23.278;2023-05-29T01:18:50;94793.75;;;13.43;100.00
6132;BME280;3097;42.692;23.278;2023-05-29T01:21:14;94790.13;;;13.44;100.00
6132;BME280;3097;42.692;23.278;2023-05-29T01:29:14;94757.03;;;13.08;100.00
6132;BME280;3097;42.692;23.278;2023-05-29T01:31:41;94795.91;;;13.30;100.00
6132;BME280;3097;42.692;23.278;2023-05-29T01:34:07;94802.81;;;13.24;100.00
6132;BME280;3097;42.692;23.278;2023-05-29T01:36:33;94797.63;;;13.24;100.00
6132;BME280;3097;42.692;23.278;2023-05-29T01:38:59;94781.47;;;13.17;100.00
6132;BME280;3097;42.692;23.278;2023-05-29T01:41:25;94802.56;;;13.26;100.00
6132;BME280;3097;42.692;23.278;2023-05-29T01:43:52;94786.81;;;13.27;100.00
6132;BME280;3097;42.692;23.278;2023-05-29T01:46:20;94795.13;;;13.29;100.00
6132;BME280;3097;42.692;23.278;2023-05-29T01:48:46;94770.06;;;13.13;100.00
6132;BME280;3097;42.692;23.278;2023-05-29T01:51:12;94794.38;;;13.34;100.00
6132;BME280;3097;42.692;23.278;2023-05-29T01:53:39;94791.00;;;13.33;100.00
6132;BME280;3097;42.692;23.278;2023-05-29T01:56:05;94792.13;;;13.37;100.00
6132;BME280;3097;42.692;23.278;2023-05-29T01:58:32;94779.16;;;13.37;100.00
6132;BME280;3097;42.692;23.278;2023-05-29T02:00:59;94767.34;;;13.25;100.00
6132;BME280;3097;42.692;23.278;2023-05-29T02:03:25;94795.72;;;13.36;100.00
6132;BME280;3097;42.692;23.278;2023-05-29T02:05:54;94787.16;;;13.36;100.00
6132;BME280;3097;42.692;23.278;2023-05-29T02:08:21;94787.97;;;13.36;100.00
6132;BME280;3097;42.692;23.278;2023-05-29T02:10:47;94778.13;;;13.38;100.00
6132;BME280;3097;42.692;23.278;2023-05-29T02:13:12;94780.00;;;13.43;100.00
6132;BME280;3097;42.692;23.278;2023-05-29T02:15:37;94767.25;;;13.36;100.00
6132;BME280;3097;42.692;23.278;2023-05-29T02:18:03;94777.47;;;13.48;100.00
6132;BME280;3097;42.692;23.278;2023-05-29T02:20:28;94769.00;;;13.52;100.00
6132;BME280;3097;42.692;23.278;2023-05-29T02:22:54;94780.13;;;13.53;100.00
6132;BME280;3097;42.692;23.278;2023-05-29T02:25:19;94774.69;;;13.54;100.00
6132;BME280;3097;42.692;23.278;2023-05-29T02:27:44;94777.00;;;13.51;100.00
6132;BME280;3097;42.692;23.278;2023-05-29T02:30:10;94762.59;;;13.38;100.00
6132;BME280;3097;42.692;23.278;2023-05-29T02:32:36;94781.81;;;13.42;100.00
6132;BME280;3097;42.692;23.278;2023-05-29T02:35:02;94789.81;;;13.41;100.00
6132;BME280;3097;42.692;23.278;2023-05-29T02:37:27;94786.94;;;13.37;100.00
6132;BME280;3097;42.692;23.278;2023-05-29T02:39:53;94788.19;;;13.35;100.00
6132;BME280;3097;42.692;23.278;2023-05-29T02:42:18;94790.72;;;13.30;100.00
6132;BME280;3097;42.692;23.278;2023-05-29T02:44:44;94760.69;;;13.12;100.00
6132;BME280;3097;42.692;23.278;2023-05-29T02:47:09;94763.75;;;13.09;100.00
6132;BME280;3097;42.692;23.278;2023-05-29T02:49:35;94778.47;;;13.25;100.00
6132;BME280;3097;42.692;23.278;2023-05-29T02:52:00;94792.44;;;13.24;100.00
6132;BME280;3097;42.692;23.278;2023-05-29T02:54:26;94782.59;;;13.21;100.00
6132;BME280;3097;42.692;23.278;2023-05-29T02:56:52;94786.97;;;13.21;100.00
6132;BME280;3097;42.692;23.278;2023-05-29T02:59:17;94783.06;;;13.18;100.00
6132;BME280;3097;42.692;23.278;2023-05-29T03:01:43;94793.41;;;13.18;100.00
6132;BME280;3097;42.692;23.278;2023-05-29T03:04:09;94791.84;;;13.17;100.00
6132;BME280;3097;42.692;23.278;2023-05-29T03:06:35;94758.44;;;12.99;100.00
6132;BME280;3097;42.692;23.278;2023-05-29T03:09:02;94776.69;;;13.09;100.00
6132;BME280;3097;42.692;23.278;2023-05-29T03:11:28;94789.56;;;13.21;100.00
6132;BME280;3097;42.692;23.278;2023-05-29T03:13:54;94750.38;;;12.95;100.00
6132;BME280;3097;42.692;23.278;2023-05-29T03:16:20;94793.47;;;13.23;100.00
6132;BME280;3097;42.692;23.278;2023-05-29T03:18:46;94785.47;;;13.25;100.00
6132;BME280;3097;42.692;23.278;2023-05-29T03:21:12;94787.88;;;13.31;100.00
6132;BME280;3097;42.692;23.278;2023-05-29T03:23:37;94786.00;;;13.27;100.00
6132;BME280;3097;42.692;23.278;2023-05-29T03:26:03;94778.47;;;13.25;100.00
6132;BME280;3097;42.692;23.278;2023-05-29T03:28:29;94794.94;;;13.36;100.00
6132;BME280;3097;42.692;23.278;2023-05-29T03:30:55;94787.47;;;13.39;100.00
6132;BME280;3097;42.692;23.278;2023-05-29T03:33:20;94792.72;;;13.44;100.00
6132;BME280;3097;42.692;23.278;2023-05-29T03:35:46;94798.41;;;13.46;100.00
6132;BME280;3097;42.692;23.278;2023-05-29T03:38:11;94798.72;;;13.50;100.00
6132;BME280;3097;42.692;23.278;2023-05-29T03:40:36;94805.72;;;13.49;100.00
6132;BME280;3097;42.692;23.278;2023-05-29T03:43:02;94762.94;;;13.25;100.00
6132;BME280;3097;42.692;23.278;2023-05-29T03:45:27;94806.50;;;13.50;100.00
6132;BME280;3097;42.692;23.278;2023-05-29T03:47:53;94809.94;;;13.55;100.00
6132;BME280;3097;42.692;23.278;2023-05-29T03:50:18;94818.38;;;13.68;100.00
6132;BME280;3097;42.692;23.278;2023-05-29T03:52:43;94815.28;;;13.71;100.00
6132;BME280;3097;42.692;23.278;2023-05-29T03:55:10;94820.53;;;13.76;100.00
6132;BME280;3097;42.692;23.278;2023-05-29T03:57:40;94823.25;;;13.86;100.00
6132;BME280;3097;42.692;23.278;2023-05-29T04:00:07;94822.34;;;13.97;100.00
6132;BME280;3097;42.692;23.278;2023-05-29T04:02:35;94822.44;;;14.07;100.00
6132;BME280;3097;42.692;23.278;2023-05-29T04:05:01;94821.72;;;14.12;100.00
6132;BME280;3097;42.692;23.278;2023-05-29T04:07:26;94829.06;;;14.20;100.00
6132;BME280;3097;42.692;23.278;2023-05-29T04:09:51;94837.66;;;14.25;100.00
6132;BME280;3097;42.692;23.278;2023-05-29T04:12:17;94835.34;;;14.29;100.00
6132;BME280;3097;42.692;23.278;2023-05-29T04:14:42;94835.66;;;14.32;100.00
6132;BME280;3097;42.692;23.278;2023-05-29T04:17:08;94836.72;;;14.37;100.00
6132;BME280;3097;42.692;23.278;2023-05-29T04:19:33;94831.88;;;14.40;100.00
6132;BME280;3097;42.692;23.278;2023-05-29T04:21:58;94834.81;;;14.49;100.00
6132;BME280;3097;42.692;23.278;2023-05-29T04:24:24;94797.19;;;14.24;100.00
6132;BME280;3097;42.692;23.278;2023-05-29T04:26:50;94789.19;;;14.26;100.00
6132;BME280;3097;42.692;23.278;2023-05-29T04:29:16;94839.81;;;14.60;100.00
6132;BME280;3097;42.692;23.278;2023-05-29T04:31:42;94836.97;;;14.62;100.00
6132;BME280;3097;42.692;23.278;2023-05-29T04:34:08;94835.19;;;14.62;100.00
6132;BME280;3097;42.692;23.278;2023-05-29T04:36:36;94835.22;;;14.67;100.00
6132;BME280;3097;42.692;23.278;2023-05-29T04:39:07;94841.72;;;14.70;100.00
6132;BME280;3097;42.692;23.278;2023-05-29T04:41:32;94844.66;;;14.79;100.00
6132;BME280;3097;42.692;23.278;2023-05-29T04:43:58;94849.41;;;14.92;100.00
6132;BME280;3097;42.692;23.278;2023-05-29T04:46:24;94843.78;;;15.00;100.00
6132;BME280;3097;42.692;23.278;2023-05-29T04:48:51;94841.75;;;15.07;100.00
6132;BME280;3097;42.692;23.278;2023-05-29T04:51:22;94844.13;;;15.14;100.00
6132;BME280;3097;42.692;23.278;2023-05-29T04:53:49;94847.53;;;15.19;100.00
6132;BME280;3097;42.692;23.278;2023-05-29T04:56:16;94823.88;;;15.10;100.00
6132;BME280;3097;42.692;23.278;2023-05-29T04:58:43;94844.19;;;15.24;100.00
6132;BME280;3097;42.692;23.278;2023-05-29T05:01:08;94852.03;;;15.34;100.00
6132;BME280;3097;42.692;23.278;2023-05-29T05:03:35;94860.34;;;15.36;100.00
6132;BME280;3097;42.692;23.278;2023-05-29T05:06:01;94868.19;;;15.41;100.00
6132;BME280;3097;42.692;23.278;2023-05-29T05:08:33;94866.66;;;15.45;100.00
6132;BME280;3097;42.692;23.278;2023-05-29T05:11:00;94851.84;;;15.40;100.00
6132;BME280;3097;42.692;23.278;2023-05-29T05:13:26;94883.16;;;15.61;100.00
6132;BME280;3097;42.692;23.278;2023-05-29T05:15:52;94884.19;;;15.65;100.00
6132;BME280;3097;42.692;23.278;2023-05-29T05:18:17;94884.75;;;15.72;100.00
6132;BME280;3097;42.692;23.278;2023-05-29T05:20:42;94885.56;;;15.77;100.00
6132;BME280;3097;42.692;23.278;2023-05-29T05:23:09;94884.03;;;15.86;100.00
6132;BME280;3097;42.692;23.278;2023-05-29T05:25:36;94887.22;;;15.94;100.00
6132;BME280;3097;42.692;23.278;2023-05-29T05:28:02;94845.03;;;15.76;100.00
6132;BME280;3097;42.692;23.278;2023-05-29T05:30:31;94876.06;;;16.03;100.00
6132;BME280;3097;42.692;23.278;2023-05-29T05:32:57;94879.44;;;16.09;100.00
6132;BME280;3097;42.692;23.278;2023-05-29T05:35:22;94879.22;;;16.15;100.00
6132;BME280;3097;42.692;23.278;2023-05-29T05:37:48;94861.25;;;16.09;100.00
6132;BME280;3097;42.692;23.278;2023-05-29T05:40:13;94883.16;;;16.23;100.00
6132;BME280;3097;42.692;23.278;2023-05-29T05:42:39;94888.91;;;16.35;100.00
6132;BME280;3097;42.692;23.278;2023-05-29T05:45:05;94883.41;;;16.32;100.00
6132;BME280;3097;42.692;23.278;2023-05-29T05:47:31;94891.78;;;16.49;100.00
6132;BME280;3097;42.692;23.278;2023-05-29T05:49:57;94885.84;;;16.58;100.00
6132;BME280;3097;42.692;23.278;2023-05-29T05:52:23;94872.53;;;16.55;99.97
6132;BME280;3097;42.692;23.278;2023-05-29T05:54:49;94877.81;;;16.75;100.00
6132;BME280;3097;42.692;23.278;2023-05-29T05:57:15;94876.00;;;16.86;99.00
6132;BME280;3097;42.692;23.278;2023-05-29T05:59:40;94889.28;;;17.05;97.55
6132;BME280;3097;42.692;23.278;2023-05-29T06:02:06;94883.81;;;17.16;98.25
6132;BME280;3097;42.692;23.278;2023-05-29T06:04:35;94876.22;;;17.40;99.79
6132;BME280;3097;42.692;23.278;2023-05-29T06:07:00;94893.16;;;17.63;97.14
6132;BME280;3097;42.692;23.278;2023-05-29T06:09:26;94883.28;;;18.73;95.31
6132;BME280;3097;42.692;23.278;2023-05-29T06:11:51;94863.56;;;19.78;90.73
6132;BME280;3097;42.692;23.278;2023-05-29T06:14:17;94852.53;;;20.28;83.17
6132;BME280;3097;42.692;23.278;2023-05-29T06:16:42;94872.59;;;20.57;82.49
6132;BME280;3097;42.692;23.278;2023-05-29T06:19:08;94892.03;;;20.69;80.47
6132;BME280;3097;42.692;23.278;2023-05-29T06:21:34;94889.69;;;20.68;82.34
6132;BME280;3097;42.692;23.278;2023-05-29T06:24:02;94891.22;;;21.25;77.43
6132;BME280;3097;42.692;23.278;2023-05-29T06:26:27;94901.34;;;21.32;75.98
6132;BME280;3097;42.692;23.278;2023-05-29T06:28:53;94901.91;;;21.29;76.68
6132;BME280;3097;42.692;23.278;2023-05-29T06:31:19;94911.28;;;21.94;76.10
6132;BME280;3097;42.692;23.278;2023-05-29T06:33:45;94908.47;;;22.32;73.33
6132;BME280;3097;42.692;23.278;2023-05-29T06:36:10;94897.00;;;22.00;71.77
6132;BME280;3097;42.692;23.278;2023-05-29T06:38:36;94882.50;;;22.17;74.98
6132;BME280;3097;42.692;23.278;2023-05-29T06:41:02;94894.28;;;23.05;73.74
6132;BME280;3097;42.692;23.278;2023-05-29T06:43:28;94891.22;;;23.34;71.93
6132;BME280;3097;42.692;23.278;2023-05-29T06:45:53;94899.41;;;23.32;69.80
6132;BME280;3097;42.692;23.278;2023-05-29T06:48:19;94883.94;;;23.92;70.09
6132;BME280;3097;42.692;23.278;2023-05-29T06:50:48;94880.38;;;24.37;64.77
6132;BME280;3097;42.692;23.278;2023-05-29T06:53:13;94899.81;;;24.58;64.52
6132;BME280;3097;42.692;23.278;2023-05-29T06:55:39;94898.88;;;24.71;65.39
6132;BME280;3097;42.692;23.278;2023-05-29T06:58:08;94882.41;;;24.74;64.67
6132;BME280;3097;42.692;23.278;2023-05-29T07:00:33;94878.88;;;24.70;66.18
6132;BME280;3097;42.692;23.278;2023-05-29T07:02:58;94891.16;;;25.18;64.46
6132;BME280;3097;42.692;23.278;2023-05-29T07:05:26;94896.72;;;25.08;64.38
6132;BME280;3097;42.692;23.278;2023-05-29T07:07:51;94878.69;;;24.75;63.73
6132;BME280;3097;42.692;23.278;2023-05-29T07:10:17;94859.13;;;24.33;66.93
6132;BME280;3097;42.692;23.278;2023-05-29T07:12:42;94887.88;;;24.86;67.43
6132;BME280;3097;42.692;23.278;2023-05-29T07:15:08;94896.38;;;25.26;67.65
6132;BME280;3097;42.692;23.278;2023-05-29T07:17:34;94897.59;;;25.63;63.72
6132;BME280;3097;42.692;23.278;2023-05-29T07:19:59;94898.69;;;25.62;60.44
6132;BME280;3097;42.692;23.278;2023-05-29T07:22:25;94895.16;;;25.41;61.25
6132;BME280;3097;42.692;23.278;2023-05-29T07:24:50;94888.16;;;25.28;62.25
6132;BME280;3097;42.692;23.278;2023-05-29T07:27:16;94888.75;;;25.42;60.11
6132;BME280;3097;42.692;23.278;2023-05-29T07:29:41;94886.59;;;25.27;62.03
6132;BME280;3097;42.692;23.278;2023-05-29T07:32:06;94890.56;;;25.76;63.11
6132;BME280;3097;42.692;23.278;2023-05-29T07:34:32;94891.09;;;26.37;61.19
6132;BME280;3097;42.692;23.278;2023-05-29T07:37:02;94895.91;;;26.35;60.72
6132;BME280;3097;42.692;23.278;2023-05-29T07:39:33;94894.66;;;26.32;58.49
6132;BME280;3097;42.692;23.278;2023-05-29T07:42:05;94891.44;;;26.27;59.32
6132;BME280;3097;42.692;23.278;2023-05-29T07:44:31;94898.66;;;26.09;60.18
6132;BME280;3097;42.692;23.278;2023-05-29T07:46:56;94881.97;;;25.24;61.84
6132;BME280;3097;42.692;23.278;2023-05-29T07:49:22;94891.94;;;24.92;61.87
6132;BME280;3097;42.692;23.278;2023-05-29T07:51:47;94891.22;;;24.26;62.24
6132;BME280;3097;42.692;23.278;2023-05-29T07:54:16;94888.38;;;23.83;63.86
6132;BME280;3097;42.692;23.278;2023-05-29T07:56:43;94890.31;;;23.38;65.32
6132;BME280;3097;42.692;23.278;2023-05-29T07:59:09;94875.09;;;22.68;66.98
6132;BME280;3097;42.692;23.278;2023-05-29T08:01:35;94882.56;;;22.89;70.92
6132;BME280;3097;42.692;23.278;2023-05-29T08:04:04;94884.84;;;23.26;68.78
6132;BME280;3097;42.692;23.278;2023-05-29T08:06:30;94886.59;;;23.62;66.33
6132;BME280;3097;42.692;23.278;2023-05-29T08:08:58;94889.94;;;23.53;64.24
6132;BME280;3097;42.692;23.278;2023-05-29T08:11:23;94873.41;;;23.31;64.70
6132;BME280;3097;42.692;23.278;2023-05-29T08:13:49;94888.88;;;22.88;67.93
6132;BME280;3097;42.692;23.278;2023-05-29T08:16:14;94879.22;;;22.61;67.87
6132;BME280;3097;42.692;23.278;2023-05-29T08:18:41;94889.16;;;22.50;68.49
6132;BME280;3097;42.692;23.278;2023-05-29T08:21:07;94892.09;;;22.35;69.26
6132;BME280;3097;42.692;23.278;2023-05-29T08:23:35;94898.03;;;22.27;70.06
6132;BME280;3097;42.692;23.278;2023-05-29T08:26:01;94903.50;;;22.03;71.74
6132;BME280;3097;42.692;23.278;2023-05-29T08:28:30;94880.63;;;21.62;72.99
6132;BME280;3097;42.692;23.278;2023-05-29T08:30:55;94886.28;;;21.83;73.85
6132;BME280;3097;42.692;23.278;2023-05-29T08:33:21;94898.16;;;21.94;72.65
6132;BME280;3097;42.692;23.278;2023-05-29T08:35:46;94798.59;;;21.30;70.99
6132;BME280;3097;42.692;23.278;2023-05-29T08:38:12;94896.22;;;22.14;67.98
6132;BME280;3097;42.692;23.278;2023-05-29T08:40:37;94890.03;;;22.59;67.54
6132;BME280;3097;42.692;23.278;2023-05-29T08:43:10;94894.16;;;22.88;66.51
6132;BME280;3097;42.692;23.278;2023-05-29T08:45:42;94891.88;;;23.17;65.37
6132;BME280;3097;42.692;23.278;2023-05-29T08:48:09;94884.00;;;23.17;65.45
6132;BME280;3097;42.692;23.278;2023-05-29T08:50:35;94878.25;;;23.60;66.04
6132;BME280;3097;42.692;23.278;2023-05-29T08:53:00;94879.19;;;23.64;62.71
6132;BME280;3097;42.692;23.278;2023-05-29T08:55:26;94874.94;;;23.54;63.49
6132;BME280;3097;42.692;23.278;2023-05-29T08:57:52;94859.94;;;23.32;62.53
6132;BME280;3097;42.692;23.278;2023-05-29T09:00:18;94866.44;;;23.04;63.46
6132;BME280;3097;42.692;23.278;2023-05-29T09:02:45;94859.03;;;22.34;63.07
6132;BME280;3097;42.692;23.278;2023-05-29T09:05:14;94874.88;;;22.43;64.45
6132;BME280;3097;42.692;23.278;2023-05-29T09:07:40;94850.78;;;22.27;64.19
6132;BME280;3097;42.692;23.278;2023-05-29T09:10:07;94865.19;;;22.65;63.49
6132;BME280;3097;42.692;23.278;2023-05-29T09:12:34;94831.44;;;22.23;61.59
6132;BME280;3097;42.692;23.278;2023-05-29T09:15:00;94867.88;;;22.38;62.62
6132;BME280;3097;42.692;23.278;2023-05-29T09:17:30;94864.28;;;22.34;63.08
6132;BME280;3097;42.692;23.278;2023-05-29T09:19:57;94862.56;;;22.16;63.57
6132;BME280;3097;42.692;23.278;2023-05-29T09:22:23;94858.81;;;22.44;64.09
6132;BME280;3097;42.692;23.278;2023-05-29T09:24:48;94848.44;;;22.75;60.77
6132;BME280;3097;42.692;23.278;2023-05-29T09:27:14;94852.38;;;22.86;62.30
6132;BME280;3097;42.692;23.278;2023-05-29T09:29:42;94852.91;;;22.74;61.33
6132;BME280;3097;42.692;23.278;2023-05-29T09:32:08;94849.00;;;22.36;62.44
6132;BME280;3097;42.692;23.278;2023-05-29T09:34:34;94845.28;;;22.01;62.83
6132;BME280;3097;42.692;23.278;2023-05-29T09:37:05;94835.84;;;22.00;63.07
6132;BME280;3097;42.692;23.278;2023-05-29T09:39:49;94839.41;;;21.90;64.41
6132;BME280;3097;42.692;23.278;2023-05-29T09:42:17;94831.25;;;21.92;64.77
6132;BME280;3097;42.692;23.278;2023-05-29T09:44:44;94822.41;;;21.88;66.75
6132;BME280;3097;42.692;23.278;2023-05-29T09:47:21;94828.41;;;21.88;65.94
6132;BME280;3097;42.692;23.278;2023-05-29T09:49:47;94831.25;;;22.06;66.40
6132;BME280;3097;42.692;23.278;2023-05-29T09:52:13;94824.38;;;22.10;64.24
6132;BME280;3097;42.692;23.278;2023-05-29T09:54:42;94804.88;;;22.11;63.71
6132;BME280;3097;42.692;23.278;2023-05-29T09:57:12;94807.19;;;22.26;64.24
6132;BME280;3097;42.692;23.278;2023-05-29T09:59:39;94806.13;;;22.27;63.88
6132;BME280;3097;42.692;23.278;2023-05-29T10:02:04;94811.91;;;22.51;62.40
6132;BME280;3097;42.692;23.278;2023-05-29T10:04:33;94798.47;;;22.53;61.32
6132;BME280;3097;42.692;23.278;2023-05-29T10:07:04;94811.31;;;22.54;61.73
6132;BME280;3097;42.692;23.278;2023-05-29T10:09:30;94818.84;;;22.47;62.39
6132;BME280;3097;42.692;23.278;2023-05-29T10:12:00;94811.53;;;22.44;62.72
6132;BME280;3097;42.692;23.278;2023-05-29T10:14:29;94815.72;;;22.45;61.86
6132;BME280;3097;42.692;23.278;2023-05-29T10:16:58;94811.47;;;22.35;61.94
6132;BME280;3097;42.692;23.278;2023-05-29T10:19:29;94806.94;;;22.50;61.42
6132;BME280;3097;42.692;23.278;2023-05-29T10:21:55;94808.34;;;22.69;60.97
6132;BME280;3097;42.692;23.278;2023-05-29T10:24:22;94806.84;;;22.55;62.69
6132;BME280;3097;42.692;23.278;2023-05-29T10:26:49;94807.63;;;22.55;63.61
6132;BME280;3097;42.692;23.278;2023-05-29T10:29:47;94804.44;;;22.67;60.99
6132;BME280;3097;42.692;23.278;2023-05-29T10:37:43;94793.00;;;22.85;61.88
6132;BME280;3097;42.692;23.278;2023-05-29T10:40:11;94812.78;;;22.83;58.31
6132;BME280;3097;42.692;23.278;2023-05-29T10:45:09;94708.00;;;21.73;59.28
6132;BME280;3097;42.692;23.278;2023-05-29T10:47:37;94801.72;;;22.36;59.52
6132;BME280;3097;42.692;23.278;2023-05-29T10:50:03;94797.03;;;22.47;59.46
6132;BME280;3097;42.692;23.278;2023-05-29T10:52:34;94782.06;;;22.47;59.40
6132;BME280;3097;42.692;23.278;2023-05-29T10:55:04;94779.25;;;22.66;57.94
6132;BME280;3097;42.692;23.278;2023-05-29T10:57:29;94781.84;;;22.44;57.80
6132;BME280;3097;42.692;23.278;2023-05-29T11:00:06;94777.06;;;22.23;58.65
6132;BME280;3097;42.692;23.278;2023-05-29T11:02:38;94770.22;;;22.00;58.98
6132;BME280;3097;42.692;23.278;2023-05-29T11:05:05;94728.31;;;21.81;58.48
6132;BME280;3097;42.692;23.278;2023-05-29T11:07:55;94781.88;;;22.08;60.04
6132;BME280;3097;42.692;23.278;2023-05-29T11:16:12;94757.72;;;22.64;59.25
6132;BME280;3097;42.692;23.278;2023-05-29T11:18:42;94756.22;;;22.71;60.35
6132;BME280;3097;42.692;23.278;2023-05-29T11:21:27;94751.94;;;22.98;59.50
6132;BME280;3097;42.692;23.278;2023-05-29T11:23:57;94754.56;;;22.98;59.19
6132;BME280;3097;42.692;23.278;2023-05-29T11:26:25;94752.91;;;22.80;58.25
6132;BME280;3097;42.692;23.278;2023-05-29T11:28:51;94751.84;;;22.81;59.15
6132;BME280;3097;42.692;23.278;2023-05-29T11:31:17;94756.63;;;22.78;60.01
6132;BME280;3097;42.692;23.278;2023-05-29T11:33:48;94746.78;;;22.84;59.96
6132;BME280;3097;42.692;23.278;2023-05-29T11:36:15;94749.84;;;22.64;62.76
6132;BME280;3097;42.692;23.278;2023-05-29T11:38:41;94757.31;;;22.70;63.12
6132;BME280;3097;42.692;23.278;2023-05-29T11:41:07;94754.28;;;22.55;63.04
6132;BME280;3097;42.692;23.278;2023-05-29T11:43:34;94746.41;;;22.55;62.85
6132;BME280;3097;42.692;23.278;2023-05-29T11:45:59;94746.22;;;22.73;63.43
6132;BME280;3097;42.692;23.278;2023-05-29T11:48:25;94745.38;;;22.87;62.53
6132;BME280;3097;42.692;23.278;2023-05-29T11:50:51;94739.03;;;22.88;64.33
6132;BME280;3097;42.692;23.278;2023-05-29T11:53:19;94739.69;;;22.93;66.18
6132;BME280;3097;42.692;23.278;2023-05-29T11:55:45;94721.41;;;22.88;64.99
6132;BME280;3097;42.692;23.278;2023-05-29T11:58:11;94749.19;;;23.03;64.42
6132;BME280;3097;42.692;23.278;2023-05-29T12:00:38;94755.16;;;22.95;61.95
6132;BME280;3097;42.692;23.278;2023-05-29T12:03:06;94726.03;;;22.60;61.20
6132;BME280;3097;42.692;23.278;2023-05-29T12:05:38;94743.00;;;22.54;62.47
6132;BME280;3097;42.692;23.278;2023-05-29T12:08:09;94723.75;;;22.23;62.46
6132;BME280;3097;42.692;23.278;2023-05-29T12:10:34;94730.44;;;22.29;62.64
6132;BME280;3097;42.692;23.278;2023-05-29T12:13:00;94722.09;;;22.27;62.81
6132;BME280;3097;42.692;23.278;2023-05-29T12:15:28;94715.75;;;22.06;63.43
6132;BME280;3097;42.692;23.278;2023-05-29T12:17:55;94750.25;;;22.13;65.95
6132;BME280;3097;42.692;23.278;2023-05-29T12:20:24;94761.84;;;21.84;68.16
6132;BME280;3097;42.692;23.278;2023-05-29T12:22:52;94776.25;;;21.46;74.47
6132;BME280;3097;42.692;23.278;2023-05-29T12:25:22;94787.03;;;20.98;81.99
6132;BME280;3097;42.692;23.278;2023-05-29T12:27:48;94778.53;;;20.41;87.69
6132;BME280;3097;42.692;23.278;2023-05-29T12:30:19;94728.44;;;19.92;94.25
6132;BME280;3097;42.692;23.278;2023-05-29T12:32:47;94792.94;;;20.20;99.18
6132;BME280;3097;42.692;23.278;2023-05-29T12:35:22;94790.53;;;20.05;96.67
6132;BME280;3097;42.692;23.278;2023-05-29T12:38:08;94792.28;;;19.91;95.58
6132;BME280;3097;42.692;23.278;2023-05-29T12:40:34;94799.25;;;19.77;94.50
6132;BME280;3097;42.692;23.278;2023-05-29T12:43:03;94801.03;;;19.57;95.21
6132;BME280;3097;42.692;23.278;2023-05-29T12:45:31;94797.13;;;19.55;100.00
6132;BME280;3097;42.692;23.278;2023-05-29T12:48:01;94792.47;;;19.52;99.44
6132;BME280;3097;42.692;23.278;2023-05-29T12:50:29;94787.47;;;19.55;100.00
6132;BME280;3097;42.692;23.278;2023-05-29T12:53:00;94793.25;;;19.52;98.57
6132;BME280;3097;42.692;23.278;2023-05-29T12:55:30;94794.75;;;19.58;100.00
6132;BME280;3097;42.692;23.278;2023-05-29T12:57:59;94794.50;;;19.60;100.00
6132;BME280;3097;42.692;23.278;2023-05-29T13:00:27;94798.50;;;19.52;98.89
6132;BME280;3097;42.692;23.278;2023-05-29T13:02:53;94789.03;;;19.56;100.00
6132;BME280;3097;42.692;23.278;2023-05-29T13:05:18;94786.41;;;19.56;100.00
6132;BME280;3097;42.692;23.278;2023-05-29T13:07:47;94738.59;;;19.27;100.00
6132;BME280;3097;42.692;23.278;2023-05-29T13:10:13;94790.31;;;19.59;100.00
6132;BME280;3097;42.692;23.278;2023-05-29T13:12:40;94794.22;;;19.61;100.00
6132;BME280;3097;42.692;23.278;2023-05-29T13:15:06;94788.69;;;19.63;96.29
6132;BME280;3097;42.692;23.278;2023-05-29T13:17:32;94787.25;;;19.76;98.54
6132;BME280;3097;42.692;23.278;2023-05-29T13:19:58;94793.06;;;19.91;95.37
6132;BME280;3097;42.692;23.278;2023-05-29T13:22:26;94792.13;;;20.01;90.76
6132;BME280;3097;42.692;23.278;2023-05-29T13:24:58;94798.19;;;20.20;91.22
6132;BME280;3097;42.692;23.278;2023-05-29T13:27:27;94690.72;;;19.74;93.29